Time;durP1;ratioP1;P1;durP2;ratioP2;P2;SDS_P1;SDS_P2;PMS_P1;PMS_P2;Temp;Humidity;BMP_temperature;BMP_pressure;BME280_temperature;BME280_humidity;BME280_pressure;Samples;Min_cycle;Max_cycle;Signal;HPM_P1;HPM_P2
2023/01/17 00:02:23;;;;;;;39.55;29.90;;;;;;;;;;5051576;28;20049;-72
2023/01/17 00:10:22;;;;;;;39.30;28.92;;;;;;;;;;5051935;28;20044;-72
2023/01/17 00:12:50;;;;;;;42.38;28.50;;;;;;;;;;5051960;28;20060;-72
2023/01/17 00:15:18;;;;;;;41.65;30.58;;;;;;;;;;5037938;28;20049;-72
2023/01/17 00:17:46;;;;;;;40.22;29.33;;;;;;;;;;5051490;28;20115;-72
2023/01/17 01:35:27;;;;;;;38.35;28.35;;;;;;;;;;5054805;28;20084;-71
2023/01/17 01:37:54;;;;;;;32.50;22.70;;;;;;;;;;5054532;28;20049;-71
2023/01/17 01:40:20;;;;;;;29.63;19.75;;;;;;;;;;5054563;28;20055;-71
2023/01/17 01:42:51;;;;;;;32.15;21.73;;;;;;;;;;5054315;28;20045;-71
2023/01/17 01:45:21;;;;;;;32.40;21.95;;;;;;;;;;5054269;28;20484;-71
2023/01/17 01:47:49;;;;;;;34.38;23.38;;;;;;;;;;5054354;28;20044;-71
2023/01/17 01:50:15;;;;;;;34.60;24.95;;;;;;;;;;5054722;28;20585;-71
2023/01/17 01:52:43;;;;;;;35.63;25.27;;;;;;;;;;5054265;28;20071;-71
2023/01/17 01:55:15;;;;;;;41.40;26.25;;;;;;;;;;5054150;28;20413;-71
2023/01/17 01:57:45;;;;;;;35.33;24.65;;;;;;;;;;5054449;28;20059;-71
2023/01/17 02:00:15;;;;;;;32.38;23.90;;;;;;;;;;5036122;28;20386;-71
2023/01/17 02:02:42;;;;;;;33.13;22.50;;;;;;;;;;5054316;28;20107;-71
2023/01/17 02:05:10;;;;;;;32.60;22.70;;;;;;;;;;5053827;28;20129;-71
2023/01/17 02:08:02;;;;;;;32.75;24.08;;;;;;;;;;5053664;28;20427;-71
2023/01/17 02:10:36;;;;;;;34.33;24.77;;;;;;;;;;5050090;28;20049;-71
2023/01/17 02:13:02;;;;;;;33.45;24.55;;;;;;;;;;5054227;28;20053;-71
2023/01/17 02:15:31;;;;;;;35.35;25.67;;;;;;;;;;5053826;28;20128;-71
2023/01/17 02:18:00;;;;;;;35.15;25.27;;;;;;;;;;5053777;28;20056;-71
2023/01/17 02:20:30;;;;;;;34.53;25.35;;;;;;;;;;5053567;28;20479;-71
2023/01/17 02:22:59;;;;;;;36.38;25.33;;;;;;;;;;5053250;28;20055;-71
2023/01/17 02:25:37;;;;;;;37.47;25.80;;;;;;;;;;5053644;28;20049;-71
2023/01/17 02:28:22;;;;;;;34.60;25.85;;;;;;;;;;5053538;28;20055;-71
2023/01/17 02:31:00;;;;;;;32.55;24.08;;;;;;;;;;5053388;28;20055;-71
2023/01/17 02:33:26;;;;;;;;;;;;;;;;;;5052396;28;20045;-71
2023/01/17 02:36:03;;;;;;;33.53;23.23;;;;;;;;;;5053282;28;19936;-71
2023/01/17 02:38:30;;;;;;;27.88;21.42;;;;;;;;;;5035968;28;20168;-71
2023/01/17 02:41:06;;;;;;;28.85;20.67;;;;;;;;;;5053400;28;20056;-71
2023/01/17 02:43:34;;;;;;;30.05;22.10;;;;;;;;;;5053301;28;20127;-71
2023/01/17 02:46:00;;;;;;;30.15;21.55;;;;;;;;;;5053275;28;20049;-71
2023/01/17 02:48:28;;;;;;;28.00;21.00;;;;;;;;;;5052921;28;20044;-71
2023/01/17 02:50:54;;;;;;;28.50;19.63;;;;;;;;;;5053274;28;20057;-71
2023/01/17 02:53:27;;;;;;;27.63;19.80;;;;;;;;;;5035519;28;20052;-71
2023/01/17 02:56:12;;;;;;;27.20;20.13;;;;;;;;;;5053022;28;20053;-71
2023/01/17 02:58:38;;;;;;;29.45;19.98;;;;;;;;;;5035062;28;20060;-71
2023/01/17 03:01:14;;;;;;;21.63;16.75;;;;;;;;;;5052922;28;20065;-71
2023/01/17 03:03:41;;;;;;;21.70;15.45;;;;;;;;;;5052769;28;20055;-71
2023/01/17 03:06:20;;;;;;;23.83;16.40;;;;;;;;;;5052650;28;20056;-71
2023/01/17 03:08:47;;;;;;;26.50;17.25;;;;;;;;;;5052614;28;20055;-71
2023/01/17 03:11:14;;;;;;;22.45;18.10;;;;;;;;;;5052589;28;20049;-71
2023/01/17 03:13:41;;;;;;;24.27;16.90;;;;;;;;;;5052760;28;20121;-71
2023/01/17 03:16:10;;;;;;;20.92;16.02;;;;;;;;;;5052712;28;20059;-71
2023/01/17 03:18:38;;;;;;;25.02;16.38;;;;;;;;;;5052436;28;20161;-71
2023/01/17 03:21:04;;;;;;;26.08;17.25;;;;;;;;;;5052622;28;20051;-71
2023/01/17 03:23:31;;;;;;;24.45;17.20;;;;;;;;;;5052237;28;20051;-71
2023/01/17 03:25:57;;;;;;;22.48;15.93;;;;;;;;;;5052543;28;20076;-71
2023/01/17 03:28:23;;;;;;;23.73;16.02;;;;;;;;;;5052651;28;20044;-71
2023/01/17 03:30:50;;;;;;;24.27;16.58;;;;;;;;;;5052105;28;20497;-71
2023/01/17 03:33:17;;;;;;;24.65;16.20;;;;;;;;;;5052257;28;20052;-71
2023/01/17 03:35:44;;;;;;;23.15;16.25;;;;;;;;;;5033783;28;20059;-71
2023/01/17 03:38:10;;;;;;;25.23;16.40;;;;;;;;;;5052290;28;20053;-71
2023/01/17 03:40:37;;;;;;;24.80;16.67;;;;;;;;;;5051804;28;20124;-71
2023/01/17 03:43:03;;;;;;;22.65;16.30;;;;;;;;;;5052073;28;20481;-71
2023/01/17 03:45:29;;;;;;;24.02;16.58;;;;;;;;;;5052267;28;20049;-71
2023/01/17 03:47:56;;;;;;;24.08;15.80;;;;;;;;;;5051947;28;20053;-71
2023/01/17 03:50:23;;;;;;;24.40;17.02;;;;;;;;;;5052056;28;20052;-71
2023/01/17 03:52:50;;;;;;;25.55;16.90;;;;;;;;;;5051698;28;20527;-71
2023/01/17 03:55:16;;;;;;;23.73;15.80;;;;;;;;;;5051801;28;20522;-71
2023/01/17 03:57:43;;;;;;;21.92;15.50;;;;;;;;;;5051775;28;20793;-71
2023/01/17 04:00:10;;;;;;;24.65;16.15;;;;;;;;;;5052026;28;20088;-71
2023/01/17 04:02:36;;;;;;;22.48;15.57;;;;;;;;;;5051558;28;20056;-71
2023/01/17 04:05:02;;;;;;;20.80;15.52;;;;;;;;;;5051801;28;20045;-71
2023/01/17 04:07:29;;;;;;;21.08;15.73;;;;;;;;;;5051504;28;20167;-71
2023/01/17 04:09:55;;;;;;;21.88;15.23;;;;;;;;;;5051814;28;20045;-71
2023/01/17 04:12:22;;;;;;;20.08;15.07;;;;;;;;;;5051660;28;20052;-70
2023/01/17 04:14:48;;;;;;;22.00;15.88;;;;;;;;;;5051795;28;20083;-70
2023/01/17 04:17:16;;;;;;;23.85;15.77;;;;;;;;;;5051602;28;20048;-70
2023/01/17 04:19:42;;;;;;;21.30;15.05;;;;;;;;;;5051464;28;20053;-71
2023/01/17 04:22:09;;;;;;;21.70;15.63;;;;;;;;;;5051690;28;20132;-71
2023/01/17 04:24:35;;;;;;;20.00;14.07;;;;;;;;;;5051742;28;20045;-71
2023/01/17 04:27:02;;;;;;;20.77;14.35;;;;;;;;;;5051714;28;20443;-70
2023/01/17 04:29:29;;;;;;;19.67;14.25;;;;;;;;;;5051428;28;20045;-71
2023/01/17 04:31:55;;;;;;;20.08;15.15;;;;;;;;;;5051637;28;20164;-70
2023/01/17 04:34:22;;;;;;;22.27;15.70;;;;;;;;;;5051379;28;20056;-70
2023/01/17 04:36:48;;;;;;;23.52;14.70;;;;;;;;;;5051226;28;20523;-70
2023/01/17 04:39:14;;;;;;;23.45;15.45;;;;;;;;;;5051428;28;20053;-71
2023/01/17 04:41:42;;;;;;;21.88;15.60;;;;;;;;;;5051451;28;20049;-71
2023/01/17 04:44:09;;;;;;;22.25;15.23;;;;;;;;;;5051441;28;20049;-71
2023/01/17 04:46:35;;;;;;;22.42;15.32;;;;;;;;;;5051918;28;20048;-70
2023/01/17 04:49:01;;;;;;;21.13;16.00;;;;;;;;;;5055506;28;20045;-71
2023/01/17 04:51:28;;;;;;;20.42;15.40;;;;;;;;;;5055716;28;20127;-70
2023/01/17 04:53:54;;;;;;;22.58;15.25;;;;;;;;;;5055135;28;20564;-70
2023/01/17 04:56:20;;;;;;;21.02;15.07;;;;;;;;;;5054995;28;20492;-70
2023/01/17 04:58:47;;;;;;;22.20;14.90;;;;;;;;;;5055182;28;20516;-71
2023/01/17 05:01:13;;;;;;;20.27;14.27;;;;;;;;;;5055215;28;20047;-70
2023/01/17 05:03:40;;;;;;;19.38;14.40;;;;;;;;;;5055220;28;20069;-70
2023/01/17 05:06:06;;;;;;;18.42;14.27;;;;;;;;;;5054837;28;20057;-70
2023/01/17 05:08:33;;;;;;;18.60;14.13;;;;;;;;;;5055125;28;20132;-70
2023/01/17 05:10:59;;;;;;;23.27;14.90;;;;;;;;;;5055223;28;20045;-71
2023/01/17 05:13:25;;;;;;;21.92;14.98;;;;;;;;;;5054765;28;20045;-70
2023/01/17 05:15:52;;;;;;;20.95;15.65;;;;;;;;;;5055228;28;20422;-70
2023/01/17 05:18:18;;;;;;;19.83;14.45;;;;;;;;;;5054629;28;20500;-70
2023/01/17 05:20:45;;;;;;;24.48;16.00;;;;;;;;;;5054924;28;20137;-70
2023/01/17 05:23:12;;;;;;;23.17;16.30;;;;;;;;;;5037100;28;20408;-70
2023/01/17 05:25:43;;;;;;;22.13;15.32;;;;;;;;;;5054602;28;20068;-71
2023/01/17 05:28:10;;;;;;;22.83;15.52;;;;;;;;;;5054498;28;20552;-70
2023/01/17 05:30:37;;;;;;;25.55;16.15;;;;;;;;;;5054476;28;20500;-70
2023/01/17 05:33:03;;;;;;;25.08;16.42;;;;;;;;;;5054800;28;20052;-70
2023/01/17 05:35:33;;;;;;;22.52;15.70;;;;;;;;;;5054364;28;20059;-70
2023/01/17 05:38:00;;;;;;;20.20;15.38;;;;;;;;;;5054675;28;20115;-70
2023/01/17 05:40:27;;;;;;;22.83;15.35;;;;;;;;;;5054490;28;20475;-70
2023/01/17 05:42:55;;;;;;;22.65;15.57;;;;;;;;;;5054219;28;20049;-70
2023/01/17 05:45:22;;;;;;;21.13;15.13;;;;;;;;;;5054432;28;20131;-70
2023/01/17 05:47:49;;;;;;;23.80;16.05;;;;;;;;;;5054115;28;20372;-70
2023/01/17 05:50:18;;;;;;;20.33;14.52;;;;;;;;;;5054136;28;20484;-70
2023/01/17 05:52:51;;;;;;;18.77;14.63;;;;;;;;;;5054107;28;20047;-70
2023/01/17 05:55:18;;;;;;;20.80;15.15;;;;;;;;;;5054088;28;20079;-70
2023/01/17 05:57:45;;;;;;;21.73;14.77;;;;;;;;;;5053613;28;20079;-70
2023/01/17 06:00:12;;;;;;;16.70;13.43;;;;;;;;;;5054207;28;20048;-70
2023/01/17 06:02:38;;;;;;;15.77;11.82;;;;;;;;;;5036289;28;20045;-70
2023/01/17 06:05:05;;;;;;;19.60;13.77;;;;;;;;;;5053999;28;20051;-70
2023/01/17 06:07:31;;;;;;;21.25;13.93;;;;;;;;;;5053739;28;20118;-70
2023/01/17 06:09:58;;;;;;;16.55;12.60;;;;;;;;;;5053661;28;20045;-70
2023/01/17 06:12:24;;;;;;;16.67;12.05;;;;;;;;;;5053675;28;20436;-70
2023/01/17 06:14:51;;;;;;;17.00;12.43;;;;;;;;;;5053857;28;20136;-70
2023/01/17 06:17:17;;;;;;;17.00;12.27;;;;;;;;;;5053574;28;20053;-70
2023/01/17 06:19:44;;;;;;;18.30;11.25;;;;;;;;;;5053791;28;20060;-70
2023/01/17 06:22:10;;;;;;;16.00;10.32;;;;;;;;;;5053751;28;20045;-70
2023/01/17 06:24:37;;;;;;;11.95;9.90;;;;;;;;;;5053888;28;20052;-70
2023/01/17 06:27:03;;;;;;;16.10;10.65;;;;;;;;;;5053345;28;20047;-70
2023/01/17 06:29:29;;;;;;;17.45;10.45;;;;;;;;;;5053378;28;20049;-70
2023/01/17 06:31:56;;;;;;;14.95;10.85;;;;;;;;;;5053558;28;20052;-70
2023/01/17 06:34:22;;;;;;;18.45;11.10;;;;;;;;;;5053547;28;20048;-70
2023/01/17 06:36:48;;;;;;;13.57;9.93;;;;;;;;;;5053199;28;20049;-70
2023/01/17 06:39:15;;;;;;;15.75;9.30;;;;;;;;;;5053158;28;20136;-70
2023/01/17 06:41:41;;;;;;;14.27;9.50;;;;;;;;;;5053316;28;20055;-70
2023/01/17 06:44:08;;;;;;;16.08;8.95;;;;;;;;;;5053320;28;20404;-70
2023/01/17 06:46:35;;;;;;;15.45;9.25;;;;;;;;;;5053260;28;20072;-70
2023/01/17 06:49:01;;;;;;;13.95;9.48;;;;;;;;;;5052986;28;20049;-70
2023/01/17 06:51:27;;;;;;;15.10;9.55;;;;;;;;;;5052651;28;20131;-70
2023/01/17 06:53:54;;;;;;;13.32;9.52;;;;;;;;;;5053064;28;20049;-70
2023/01/17 06:56:20;;;;;;;12.25;9.10;;;;;;;;;;5052718;28;20049;-70
2023/01/17 06:58:50;;;;;;;12.38;7.57;;;;;;;;;;5052752;28;20059;-70
2023/01/17 07:01:17;;;;;;;12.68;7.35;;;;;;;;;;5052830;28;20135;-70
2023/01/17 07:03:43;;;;;;;10.60;7.30;;;;;;;;;;5052420;28;20049;-69
2023/01/17 07:06:10;;;;;;;11.40;7.95;;;;;;;;;;5052787;28;20132;-69
2023/01/17 07:08:36;;;;;;;10.38;7.05;;;;;;;;;;5033456;28;20141;-70
2023/01/17 07:11:04;;;;;;;9.98;6.85;;;;;;;;;;5044399;28;20140;-70
2023/01/17 07:13:34;;;;;;;10.48;6.68;;;;;;;;;;5052237;28;20056;-69
2023/01/17 07:16:02;;;;;;;9.40;6.90;;;;;;;;;;5052078;28;20049;-69
2023/01/17 07:18:29;;;;;;;10.85;7.20;;;;;;;;;;5052208;28;20076;-69
2023/01/17 07:20:55;;;;;;;11.15;7.13;;;;;;;;;;5051891;28;20503;-70
2023/01/17 07:23:22;;;;;;;12.27;7.60;;;;;;;;;;5034368;28;20049;-69
2023/01/17 07:25:49;;;;;;;8.57;7.05;;;;;;;;;;5052107;28;20045;-70
2023/01/17 07:28:16;;;;;;;13.00;6.93;;;;;;;;;;5052561;28;20045;-70
2023/01/17 07:30:43;;;;;;;9.13;6.80;;;;;;;;;;5052198;28;20072;-71
2023/01/17 07:33:09;;;;;;;12.02;7.55;;;;;;;;;;5051951;28;20080;-70
2023/01/17 07:35:36;;;;;;;9.00;7.07;;;;;;;;;;5052302;28;20041;-70
2023/01/17 07:38:02;;;;;;;9.45;6.75;;;;;;;;;;5052087;28;20485;-70
2023/01/17 07:40:29;;;;;;;13.68;8.50;;;;;;;;;;5052200;28;20081;-69
2023/01/17 07:43:00;;;;;;;16.88;9.32;;;;;;;;;;5051777;28;20107;-71
2023/01/17 07:45:27;;;;;;;22.75;12.02;;;;;;;;;;5051394;28;20045;-71
2023/01/17 07:47:56;;;;;;;28.52;15.13;;;;;;;;;;5051904;28;20053;-70
2023/01/17 07:50:23;;;;;;;18.52;10.93;;;;;;;;;;5049568;28;20049;-70
2023/01/17 07:52:49;;;;;;;20.58;13.07;;;;;;;;;;5050889;28;20522;-70
2023/01/17 07:55:15;;;;;;;16.40;10.40;;;;;;;;;;5051132;28;20509;-70
2023/01/17 07:57:42;;;;;;;12.43;8.05;;;;;;;;;;5051948;28;20048;-70
2023/01/17 08:00:08;;;;;;;14.35;7.90;;;;;;;;;;5051768;28;20055;-70
2023/01/17 08:02:35;;;;;;;12.45;8.10;;;;;;;;;;5051229;28;20471;-70
2023/01/17 08:05:01;;;;;;;12.93;8.07;;;;;;;;;;5051427;28;20539;-70
2023/01/17 08:07:28;;;;;;;13.02;8.27;;;;;;;;;;5051338;28;20149;-70
2023/01/17 08:09:54;;;;;;;13.50;8.07;;;;;;;;;;5051591;28;20072;-70
2023/01/17 08:12:21;;;;;;;11.85;7.63;;;;;;;;;;5051673;28;20045;-70
2023/01/17 08:14:47;;;;;;;13.60;7.53;;;;;;;;;;5051598;28;20130;-70
2023/01/17 08:17:15;;;;;;;10.82;7.40;;;;;;;;;;5051644;28;20049;-70
2023/01/17 08:19:42;;;;;;;10.68;7.60;;;;;;;;;;5033731;28;20099;-70
2023/01/17 08:22:08;;;;;;;11.90;7.85;;;;;;;;;;5051614;28;20146;-70
2023/01/17 08:24:36;;;;;;;12.25;7.57;;;;;;;;;;5051337;28;20128;-70
2023/01/17 08:27:02;;;;;;;15.02;8.60;;;;;;;;;;5033933;28;20132;-70
2023/01/17 08:29:29;;;;;;;22.13;12.02;;;;;;;;;;5050785;28;20041;-70
2023/01/17 08:31:55;;;;;;;28.20;12.98;;;;;;;;;;5050651;28;20051;-70
2023/01/17 08:34:22;;;;;;;17.15;10.23;;;;;;;;;;5051500;28;20435;-70
2023/01/17 08:36:50;;;;;;;14.35;8.55;;;;;;;;;;5051668;28;20059;-70
2023/01/17 08:39:17;;;;;;;12.10;7.20;;;;;;;;;;5051522;28;20047;-70
2023/01/17 08:41:43;;;;;;;11.63;8.52;;;;;;;;;;5033484;28;20045;-70
2023/01/17 08:44:10;;;;;;;11.98;8.15;;;;;;;;;;5051258;28;20056;-70
2023/01/17 08:46:37;;;;;;;13.77;7.90;;;;;;;;;;5051178;28;20493;-70
2023/01/17 08:49:04;;;;;;;13.73;8.75;;;;;;;;;;5051274;28;20127;-70
2023/01/17 08:51:31;;;;;;;16.05;8.98;;;;;;;;;;5051358;28;20044;-70
2023/01/17 08:53:58;;;;;;;11.48;7.88;;;;;;;;;;5051501;28;20620;-70
2023/01/17 08:56:24;;;;;;;12.60;8.73;;;;;;;;;;5051100;28;20068;-70
2023/01/17 08:58:51;;;;;;;15.15;8.50;;;;;;;;;;5051167;28;20059;-70
2023/01/17 09:01:17;;;;;;;14.48;8.30;;;;;;;;;;5051067;28;20049;-70
2023/01/17 09:03:44;;;;;;;11.90;8.00;;;;;;;;;;5051200;28;20087;-70
2023/01/17 09:06:12;;;;;;;15.27;8.70;;;;;;;;;;5050668;28;20053;-70
2023/01/17 09:08:38;;;;;;;14.02;8.65;;;;;;;;;;5051341;28;20149;-70
2023/01/17 09:11:06;;;;;;;13.95;9.95;;;;;;;;;;5051293;28;20385;-70
2023/01/17 09:13:32;;;;;;;16.73;10.40;;;;;;;;;;5050961;28;20071;-70
2023/01/17 09:15:59;;;;;;;15.43;10.23;;;;;;;;;;5051016;28;20052;-70
2023/01/17 09:18:26;;;;;;;14.75;10.05;;;;;;;;;;5033479;28;20128;-70
2023/01/17 09:20:54;;;;;;;16.65;11.82;;;;;;;;;;5051193;28;20059;-70
2023/01/17 09:23:21;;;;;;;18.23;12.98;;;;;;;;;;5050820;28;20091;-70
2023/01/17 09:25:54;;;;;;;19.00;12.93;;;;;;;;;;5050969;28;20053;-70
2023/01/17 09:28:20;;;;;;;21.30;15.88;;;;;;;;;;5050837;28;20055;-70
2023/01/17 09:30:47;;;;;;;23.40;16.98;;;;;;;;;;5050855;28;20132;-70
2023/01/17 09:33:14;;;;;;;24.30;17.25;;;;;;;;;;5052393;28;20045;-70
2023/01/17 09:35:40;;;;;;;23.95;18.27;;;;;;;;;;5054521;28;20041;-70
2023/01/17 09:38:07;;;;;;;21.73;16.73;;;;;;;;;;5054639;28;20067;-70
2023/01/17 09:40:36;;;;;;;19.55;16.40;;;;;;;;;;5054077;28;20048;-70
2023/01/17 09:43:04;;;;;;;22.20;16.65;;;;;;;;;;5054171;28;20059;-71
2023/01/17 09:45:32;;;;;;;21.23;14.95;;;;;;;;;;5054412;28;20412;-70
2023/01/17 09:47:58;;;;;;;;;;;;;;;;;;5054990;28;20141;-70
2023/01/17 09:50:34;;;;;;;16.88;13.85;;;;;;;;;;5054159;28;20376;-70
2023/01/17 09:53:02;;;;;;;20.20;14.35;;;;;;;;;;5053926;28;20077;-70
2023/01/17 09:55:55;;;;;;;18.33;14.63;;;;;;;;;;5054402;28;20424;-70
2023/01/17 09:58:36;;;;;;;19.17;13.65;;;;;;;;;;5050335;28;20049;-70
2023/01/17 10:01:13;;;;;;;17.10;13.00;;;;;;;;;;5054368;28;20079;-70
2023/01/17 10:03:49;;;;;;;16.17;12.50;;;;;;;;;;5053785;28;20049;-70
2023/01/17 10:06:15;;;;;;;19.23;12.73;;;;;;;;;;5053436;28;20501;-70
2023/01/17 10:08:47;;;;;;;17.23;12.00;;;;;;;;;;5054042;28;20045;-70
2023/01/17 10:11:17;;;;;;;15.32;11.63;;;;;;;;;;5053921;28;20139;-70
2023/01/17 10:13:49;;;;;;;16.83;11.55;;;;;;;;;;5053675;28;20059;-70
2023/01/17 10:16:16;;;;;;;15.35;11.18;;;;;;;;;;5053543;28;20492;-71
2023/01/17 10:19:02;;;;;;;14.00;11.02;;;;;;;;;;5036082;28;20094;-71
2023/01/17 10:21:39;;;;;;;16.73;11.15;;;;;;;;;;5053488;28;20568;-71
2023/01/17 10:24:23;;;;;;;14.38;10.40;;;;;;;;;;5053786;28;20052;-71
2023/01/17 10:26:52;;;;;;;12.77;9.73;;;;;;;;;;5053683;28;20051;-70
2023/01/17 10:29:19;;;;;;;44.50;28.05;;;;;;;;;;5053873;28;20088;-70
2023/01/17 10:32:12;;;;;;;32.50;22.77;;;;;;;;;;5053258;28;20049;-71
2023/01/17 10:34:48;;;;;;;21.70;14.75;;;;;;;;;;5049532;28;20404;-71
2023/01/17 10:37:35;;;;;;;28.60;20.35;;;;;;;;;;5053758;28;20045;-71
2023/01/17 10:40:10;;;;;;;19.10;14.07;;;;;;;;;;5053329;28;20048;-71
2023/01/17 10:42:43;;;;;;;15.52;11.15;;;;;;;;;;5053110;28;20139;-71
2023/01/17 10:45:19;;;;;;;16.92;11.45;;;;;;;;;;5035434;28;20132;-71
2023/01/17 10:47:51;;;;;;;23.73;15.70;;;;;;;;;;5053026;28;20049;-71
2023/01/17 10:50:18;;;;;;;19.25;14.05;;;;;;;;;;5053502;28;20047;-71
2023/01/17 10:52:52;;;;;;;20.17;15.98;;;;;;;;;;5053139;28;20045;-71
2023/01/17 10:55:24;;;;;;;16.52;14.43;;;;;;;;;;5035245;28;20432;-71
2023/01/17 10:57:51;;;;;;;16.38;13.18;;;;;;;;;;5053201;28;20471;-72
2023/01/17 11:00:29;;;;;;;15.50;12.02;;;;;;;;;;5053188;28;20409;-72
2023/01/17 11:02:56;;;;;;;;;;;;;;;;;;5053104;28;20497;-72
2023/01/17 11:05:24;;;;;;;13.85;11.07;;;;;;;;;;5052735;28;19959;-71
2023/01/17 11:07:58;;;;;;;13.77;10.02;;;;;;;;;;5052905;28;20056;-71
2023/01/17 11:10:52;;;;;;;12.75;9.68;;;;;;;;;;5052981;28;20037;-71
2023/01/17 11:13:19;;;;;;;15.93;11.75;;;;;;;;;;5050196;28;20049;-72
2023/01/17 11:15:50;;;;;;;41.38;25.90;;;;;;;;;;5034893;28;20055;-71
2023/01/17 11:18:20;;;;;;;15.85;11.75;;;;;;;;;;5052718;28;20053;-72
2023/01/17 11:20:47;;;;;;;10.52;8.35;;;;;;;;;;5052674;28;20136;-72
2023/01/17 11:23:20;;;;;;;9.27;7.30;;;;;;;;;;5052531;28;20051;-72
2023/01/17 11:25:49;;;;;;;11.80;7.35;;;;;;;;;;5052322;28;20492;-71
2023/01/17 11:28:20;;;;;;;12.95;7.40;;;;;;;;;;5034592;28;20055;-72
2023/01/17 11:30:54;;;;;;;13.43;7.80;;;;;;;;;;5052565;28;20045;-71
2023/01/17 11:33:33;;;;;;;10.43;7.53;;;;;;;;;;5052425;28;20064;-73
2023/01/17 11:35:59;;;;;;;10.68;8.05;;;;;;;;;;5052276;28;20056;-71
2023/01/17 11:38:26;;;;;;;17.45;11.82;;;;;;;;;;5052115;28;20136;-71
2023/01/17 11:41:17;;;;;;;84.43;46.63;;;;;;;;;;5052161;28;20060;-71
2023/01/17 11:43:49;;;;;;;48.15;27.48;;;;;;;;;;5051805;28;20497;-72
2023/01/17 11:46:17;;;;;;;19.35;11.30;;;;;;;;;;5038103;28;20037;-72
2023/01/17 11:48:49;;;;;;;17.27;11.00;;;;;;;;;;5052097;28;20079;-71
2023/01/17 11:51:17;;;;;;;56.45;33.28;;;;;;;;;;5052094;28;20048;-72
2023/01/17 11:53:47;;;;;;;39.45;24.67;;;;;;;;;;5052303;28;20052;-72
2023/01/17 11:56:18;;;;;;;19.67;13.63;;;;;;;;;;5051511;28;20445;-72
2023/01/17 11:58:46;;;;;;;57.40;35.22;;;;;;;;;;5051990;28;20131;-72
2023/01/17 12:01:31;;;;;;;48.45;31.88;;;;;;;;;;5051853;28;20041;-71
2023/01/17 12:04:07;;;;;;;38.58;27.88;;;;;;;;;;5051604;28;20550;-72
2023/01/17 12:06:36;;;;;;;27.92;22.58;;;;;;;;;;5051492;28;20101;-71
2023/01/17 12:09:27;;;;;;;21.67;17.70;;;;;;;;;;5051839;28;20053;-71
2023/01/17 12:15:05;;;;;;;18.37;15.33;;;;;;;;;;5051528;28;20560;-71
2023/01/17 12:17:50;;;;;;;17.10;14.48;;;;;;;;;;5051866;28;20061;-71
2023/01/17 12:20:34;;;;;;;15.02;11.13;;;;;;;;;;5051826;28;20131;-72
2023/01/17 12:23:19;;;;;;;14.43;11.10;;;;;;;;;;5051294;28;20430;-71
2023/01/17 12:26:18;;;;;;;18.80;13.93;;;;;;;;;;5051426;28;20141;-72
2023/01/17 12:29:03;;;;;;;19.60;14.82;;;;;;;;;;5026030;28;20508;-71
2023/01/17 12:31:40;;;;;;;18.63;13.85;;;;;;;;;;5051744;28;20049;-72
2023/01/17 12:34:23;;;;;;;13.55;11.10;;;;;;;;;;5051675;28;20052;-72
2023/01/17 12:37:04;;;;;;;16.15;11.88;;;;;;;;;;5051349;28;20497;-72
2023/01/17 12:39:39;;;;;;;13.75;10.02;;;;;;;;;;5051413;28;20077;-72
2023/01/17 12:42:17;;;;;;;13.70;8.98;;;;;;;;;;5051598;28;20048;-72
2023/01/17 12:44:50;;;;;;;12.60;8.30;;;;;;;;;;5033876;28;20053;-72
2023/01/17 12:47:18;;;;;;;12.68;8.70;;;;;;;;;;5051514;28;20132;-72
2023/01/17 12:49:49;;;;;;;9.20;5.97;;;;;;;;;;5051293;28;20150;-72
2023/01/17 12:52:19;;;;;;;9.38;7.03;;;;;;;;;;5051218;28;20099;-72
2023/01/17 12:54:48;;;;;;;8.73;6.22;;;;;;;;;;5051102;28;20496;-72
2023/01/17 12:57:17;;;;;;;8.85;6.10;;;;;;;;;;5051608;28;20139;-72
2023/01/17 12:59:53;;;;;;;9.57;6.55;;;;;;;;;;5051387;28;20045;-72
2023/01/17 13:02:25;;;;;;;8.80;5.93;;;;;;;;;;5051459;28;20049;-73
2023/01/17 13:05:10;;;;;;;8.85;6.15;;;;;;;;;;5050914;28;20060;-72
2023/01/17 13:07:39;;;;;;;8.57;5.05;;;;;;;;;;5051465;28;20057;-72
2023/01/17 13:10:06;;;;;;;6.55;4.75;;;;;;;;;;5054984;28;20068;-72
2023/01/17 13:12:33;;;;;;;8.40;4.95;;;;;;;;;;5037103;28;20045;-73
2023/01/17 13:15:01;;;;;;;8.32;4.80;;;;;;;;;;5037068;28;20163;-73
2023/01/17 13:17:43;;;;;;;8.73;5.78;;;;;;;;;;5055008;28;20049;-73
2023/01/17 13:20:36;;;;;;;10.73;5.30;;;;;;;;;;5054849;28;20127;-73
2023/01/17 13:23:08;;;;;;;8.50;5.50;;;;;;;;;;5012215;28;20052;-73
2023/01/17 13:25:47;;;;;;;9.60;4.70;;;;;;;;;;5054948;28;20429;-73
2023/01/17 13:28:13;;;;;;;8.10;4.22;;;;;;;;;;5054968;28;20049;-73
2023/01/17 13:30:43;;;;;;;9.35;4.90;;;;;;;;;;5054466;28;20124;-73
2023/01/17 13:33:14;;;;;;;7.13;4.30;;;;;;;;;;5054703;28;20420;-73
2023/01/17 13:35:57;;;;;;;6.22;3.63;;;;;;;;;;5054535;28;20128;-73
2023/01/17 13:38:32;;;;;;;5.68;3.38;;;;;;;;;;5054563;28;20102;-73
2023/01/17 13:41:17;;;;;;;6.97;3.28;;;;;;;;;;5054597;28;20051;-73
2023/01/17 13:46:52;;;;;;;6.80;3.30;;;;;;;;;;5054515;28;20482;-73
2023/01/17 13:49:19;;;;;;;4.93;3.45;;;;;;;;;;5009205;28;20041;-73
2023/01/17 13:52:12;;;;;;;6.45;3.40;;;;;;;;;;5054126;28;20511;-73
2023/01/17 13:54:43;;;;;;;6.93;4.30;;;;;;;;;;5016124;28;20045;-73
2023/01/17 13:57:22;;;;;;;9.63;5.10;;;;;;;;;;5054007;28;20510;-73
2023/01/17 13:59:48;;;;;;;8.13;6.72;;;;;;;;;;5054281;28;20048;-73
2023/01/17 14:02:30;;;;;;;8.93;6.75;;;;;;;;;;5053954;28;20132;-73
2023/01/17 14:05:06;;;;;;;9.13;6.07;;;;;;;;;;5053826;28;20083;-72
2023/01/17 14:07:34;;;;;;;9.27;6.47;;;;;;;;;;5053847;28;20080;-72
2023/01/17 14:10:14;;;;;;;10.43;6.78;;;;;;;;;;5053675;28;20481;-73
2023/01/17 14:12:40;;;;;;;9.88;7.10;;;;;;;;;;5053918;28;20041;-72
2023/01/17 14:15:17;;;;;;;9.60;5.95;;;;;;;;;;5053634;28;20498;-73
2023/01/17 14:17:49;;;;;;;11.52;7.90;;;;;;;;;;5053583;28;20063;-73
2023/01/17 14:20:16;;;;;;;8.15;6.15;;;;;;;;;;5035559;28;20053;-73
2023/01/17 14:22:47;;;;;;;8.38;4.93;;;;;;;;;;5053540;28;20053;-73
2023/01/17 14:25:17;;;;;;;8.15;4.45;;;;;;;;;;5053655;28;20045;-73
2023/01/17 14:27:46;;;;;;;6.63;3.80;;;;;;;;;;5053815;28;20053;-74
2023/01/17 14:30:15;;;;;;;7.60;4.07;;;;;;;;;;5053476;28;20498;-74
2023/01/17 14:33:07;;;;;;;9.35;5.40;;;;;;;;;;5053839;28;20463;-73
2023/01/17 14:35:36;;;;;;;9.85;5.30;;;;;;;;;;5053591;28;20055;-73
2023/01/17 14:38:09;;;;;;;9.07;6.43;;;;;;;;;;5053376;28;20475;-73
2023/01/17 14:40:37;;;;;;;9.75;6.80;;;;;;;;;;5053125;28;20560;-73
2023/01/17 14:43:10;;;;;;;9.18;6.40;;;;;;;;;;5053105;28;20131;-73
2023/01/17 14:45:37;;;;;;;8.88;5.68;;;;;;;;;;5053291;28;20057;-73
2023/01/17 14:48:14;;;;;;;9.10;6.63;;;;;;;;;;5053515;28;20687;-73
2023/01/17 14:50:41;;;;;;;8.05;6.85;;;;;;;;;;5053064;28;20706;-73
2023/01/17 14:53:11;;;;;;;12.38;8.57;;;;;;;;;;5052879;28;20055;-73
2023/01/17 14:55:47;;;;;;;10.65;6.45;;;;;;;;;;5052901;28;20088;-73
2023/01/17 14:58:21;;;;;;;13.02;7.68;;;;;;;;;;5035331;28;20187;-72
2023/01/17 15:00:50;;;;;;;24.60;13.45;;;;;;;;;;5052936;28;20136;-72
2023/01/17 15:03:16;;;;;;;26.30;15.52;;;;;;;;;;5052803;28;20076;-72
2023/01/17 15:05:45;;;;;;;37.80;20.10;;;;;;;;;;5052352;28;20087;-73
2023/01/17 15:08:13;;;;;;;28.92;15.23;;;;;;;;;;5053157;28;20045;-73
2023/01/17 15:10:47;;;;;;;30.25;17.23;;;;;;;;;;5052589;28;20534;-72
2023/01/17 15:13:17;;;;;;;44.92;22.33;;;;;;;;;;5052838;28;20140;-73
2023/01/17 15:15:47;;;;;;;38.90;19.60;;;;;;;;;;5052681;28;20448;-72
2023/01/17 15:18:18;;;;;;;41.22;19.92;;;;;;;;;;5052375;28;20131;-72
2023/01/17 15:20:49;;;;;;;15.52;10.30;;;;;;;;;;5052657;28;20478;-73
2023/01/17 15:23:17;;;;;;;17.08;12.60;;;;;;;;;;5052707;28;20053;-73
2023/01/17 15:25:45;;;;;;;14.70;12.73;;;;;;;;;;5052290;28;20515;-73
2023/01/17 15:28:12;;;;;;;17.95;16.08;;;;;;;;;;5052393;28;20055;-72
2023/01/17 15:30:58;;;;;;;20.65;18.83;;;;;;;;;;5051417;28;20040;-72
2023/01/17 15:33:25;;;;;;;19.17;16.05;;;;;;;;;;5052194;28;20512;-73
2023/01/17 15:35:58;;;;;;;20.45;15.15;;;;;;;;;;5052316;28;20135;-72
2023/01/17 15:38:25;;;;;;;18.33;13.05;;;;;;;;;;5052134;28;20052;-72
2023/01/17 15:40:51;;;;;;;17.58;15.68;;;;;;;;;;5051966;28;20057;-73
2023/01/17 15:43:19;;;;;;;13.27;11.88;;;;;;;;;;5052371;28;20052;-73
2023/01/17 15:45:54;;;;;;;18.55;14.15;;;;;;;;;;5051859;28;20087;-72
2023/01/17 15:48:29;;;;;;;17.50;12.45;;;;;;;;;;5052161;28;20132;-72
2023/01/17 15:50:59;;;;;;;17.25;12.10;;;;;;;;;;5051996;28;20044;-72
2023/01/17 15:53:30;;;;;;;18.15;10.98;;;;;;;;;;5051825;28;20055;-72
2023/01/17 15:55:57;;;;;;;14.80;9.98;;;;;;;;;;5052051;28;20076;-72
2023/01/17 15:58:26;;;;;;;13.43;9.03;;;;;;;;;;5052177;28;20051;-72
2023/01/17 16:00:52;;;;;;;15.73;9.70;;;;;;;;;;5051803;28;20306;-72
2023/01/17 16:03:21;;;;;;;15.35;9.48;;;;;;;;;;5051818;28;20080;-72
2023/01/17 16:05:49;;;;;;;12.85;8.13;;;;;;;;;;5051384;28;20063;-72
2023/01/17 16:08:21;;;;;;;15.70;9.40;;;;;;;;;;5051617;28;20954;-72